^^
Saratoga-Weather Station Historical Data
Daily Summary for March 31, 2021 Units:  Both    English   Metric
Daily Weekly Monthly Yearly Custom
  High: Low: Average:
Temperature: 36.1 °F /  2.3 °C 34.3 °F /  1.3 °C 35.2 °F /  1.8 °C
Dew Point: 35.4 °F /  1.9 °C 33.1 °F /  0.6 °C 34.2 °F /  1.2 °C
Humidity: 97% 95% 96%
Wind Speed: 7mph /  11.3km/h - 2mph /  3.2km/h
Wind Gust: 9mph /  14.5km/h - -
Wind- - East
Pressure: 29.6 in /  1001.4 hPa 29.3 in /  991.5 hPa -
Precipitation: 0.34 in /  8.6 mm    
Historical Graphs
 
 
Tabular Data for March 31, 2021
Time Temperature Dew Point Pressure Wind Wind Speed Wind Gust Humidity Rainfall Rate (Hourly) solar
00:01 36.1 °F /  2.3 °C 35.1 °F /  1.7 °C 29.5in /  998.0hPa NE 2.9mph /  4.7km/h 6mph /  9.7km/h 96% 0.03in /  0.8mm 0 W/m2
00:06 36.1 °F /  2.3 °C 35.1 °F /  1.7 °C 29.5in /  998.0hPa SE 4mph /  6.4km/h 4mph /  6.4km/h 96% 0.04in /  1.0mm 0 W/m2
00:11 36.1 °F /  2.3 °C 35.1 °F /  1.7 °C 29.5in /  998.0hPa East 0.9mph /  1.4km/h 3mph /  4.8km/h 96% 0.04in /  1.0mm 0 W/m2
00:16 36.1 °F /  2.3 °C 35.1 °F /  1.7 °C 29.5in /  998.0hPa ENE 2mph /  3.2km/h 3mph /  4.8km/h 96% 0.04in /  1.0mm 0 W/m2
00:21 36.1 °F /  2.3 °C 35.1 °F /  1.7 °C 29.5in /  998.0hPa ENE 2.9mph /  4.7km/h 4mph /  6.4km/h 96% 0.04in /  1.0mm 0 W/m2
00:26 36 °F /  2.2 °C 34.9 °F /  1.6 °C 29.5in /  998.0hPa ESE 0.9mph /  1.4km/h 2mph /  3.2km/h 96% 0.03in /  0.8mm 0 W/m2
00:31 36 °F /  2.2 °C 34.9 °F /  1.6 °C 29.5in /  998.0hPa NE 0.9mph /  1.4km/h 5mph /  8km/h 96% 0.02in /  0.5mm 0 W/m2
00:36 36 °F /  2.2 °C 34.9 °F /  1.6 °C 29.5in /  998.0hPa East 2mph /  3.2km/h 3mph /  4.8km/h 96% 0.02in /  0.5mm 0 W/m2
00:41 36 °F /  2.2 °C 34.9 °F /  1.6 °C 29.5in /  998.0hPa ESE 0.9mph /  1.4km/h 3mph /  4.8km/h 96% 0.02in /  0.5mm 0 W/m2
00:46 35.8 °F /  2.1 °C 34.7 °F /  1.5 °C 29.5in /  998.0hPa ENE 2mph /  3.2km/h 4mph /  6.4km/h 96% 0.02in /  0.5mm 0 W/m2
00:51 35.8 °F /  2.1 °C 34.7 °F /  1.5 °C 29.5in /  998.3hPa Calm   4mph /  6.4km/h 96% 0.01in /  0.2mm 0 W/m2
00:56 35.6 °F /  2 °C 34.5 °F /  1.4 °C 29.5in /  998.3hPa NE 4.9mph /  7.9km/h 7mph /  11.3km/h 96% 0.01in /  0.2mm 0 W/m2
01:01 35.6 °F /  2 °C 34.5 °F /  1.4 °C 29.5in /  998.0hPa ENE 2.9mph /  4.7km/h 3mph /  4.8km/h 96% 0.01in /  0.2mm 0 W/m2
01:06 35.6 °F /  2 °C 34.5 °F /  1.4 °C 29.5in /  998.0hPa ESE 0.9mph /  1.4km/h 7mph /  11.3km/h 96% 0in /  0.0mm 0 W/m2
01:11 35.6 °F /  2 °C 34.5 °F /  1.4 °C 29.5in /  998.0hPa East 2mph /  3.2km/h 4mph /  6.4km/h 96% 0in /  0.0mm 0 W/m2
01:16 35.4 °F /  1.9 °C 34.3 °F /  1.3 °C 29.5in /  998.3hPa East 0.9mph /  1.4km/h 4mph /  6.4km/h 96% 0in /  0.0mm 0 W/m2
01:21 35.4 °F /  1.9 °C 34.3 °F /  1.3 °C 29.5in /  998.3hPa East 2mph /  3.2km/h 3mph /  4.8km/h 96% 0in /  0.0mm 0 W/m2
01:26 35.4 °F /  1.9 °C 34.3 °F /  1.3 °C 29.5in /  998.3hPa ENE 2mph /  3.2km/h 4mph /  6.4km/h 96% 0in /  0.0mm 0 W/m2
01:31 35.4 °F /  1.9 °C 34.3 °F /  1.3 °C 29.5in /  998.3hPa ESE 2mph /  3.2km/h 3mph /  4.8km/h 96% 0in /  0.0mm 0 W/m2
01:36 35.4 °F /  1.9 °C 34.3 °F /  1.3 °C 29.5in /  998.3hPa SE 0.9mph /  1.4km/h 3mph /  4.8km/h 96% 0.01in /  0.2mm 0 W/m2
01:41 35.4 °F /  1.9 °C 34.3 °F /  1.3 °C 29.5in /  998.3hPa NE 0.9mph /  1.4km/h 4mph /  6.4km/h 96% 0.01in /  0.2mm 0 W/m2
01:46 35.4 °F /  1.9 °C 34.3 °F /  1.3 °C 29.5in /  998.3hPa ESE 2mph /  3.2km/h 2mph /  3.2km/h 96% 0.01in /  0.2mm 0 W/m2
01:51 35.4 °F /  1.9 °C 34.3 °F /  1.3 °C 29.5in /  998.3hPa ESE 4mph /  6.4km/h 4mph /  6.4km/h 96% 0.01in /  0.2mm 0 W/m2
01:56 35.4 °F /  1.9 °C 34.3 °F /  1.3 °C 29.5in /  998.3hPa East 2.9mph /  4.7km/h 4mph /  6.4km/h 96% 0.01in /  0.2mm 0 W/m2
02:01 35.4 °F /  1.9 °C 34.3 °F /  1.3 °C 29.5in /  998.3hPa ESE 4mph /  6.4km/h 4mph /  6.4km/h 96% 0.01in /  0.2mm 0 W/m2
02:06 35.4 °F /  1.9 °C 34.3 °F /  1.3 °C 29.5in /  998.3hPa ENE 0.9mph /  1.4km/h 4mph /  6.4km/h 96% 0.01in /  0.2mm 0 W/m2
02:11 35.4 °F /  1.9 °C 34.3 °F /  1.3 °C 29.5in /  998.3hPa East 2mph /  3.2km/h 4mph /  6.4km/h 96% 0.01in /  0.2mm 0 W/m2
02:16 35.4 °F /  1.9 °C 34.3 °F /  1.3 °C 29.5in /  998.6hPa ESE 2mph /  3.2km/h 6mph /  9.7km/h 96% 0.01in /  0.2mm 0 W/m2
02:21 35.4 °F /  1.9 °C 34.3 °F /  1.3 °C 29.5in /  998.6hPa ESE 6.9mph /  11.1km/h 7mph /  11.3km/h 96% 0.01in /  0.2mm 0 W/m2
02:26 35.4 °F /  1.9 °C 34.2 °F /  1.2 °C 29.5in /  998.6hPa East 2mph /  3.2km/h 3mph /  4.8km/h 95% 0.01in /  0.2mm 0 W/m2
02:31 35.2 °F /  1.8 °C 34 °F /  1.1 °C 29.5in /  998.6hPa SE 2mph /  3.2km/h 7mph /  11.3km/h 95% 0.01in /  0.2mm 0 W/m2
02:36 35.2 °F /  1.8 °C 34 °F /  1.1 °C 29.5in /  998.6hPa ENE 2mph /  3.2km/h 4mph /  6.4km/h 95% 0in /  0.0mm 0 W/m2
02:41 35.2 °F /  1.8 °C 34 °F /  1.1 °C 29.5in /  998.6hPa ESE 2.9mph /  4.7km/h 5mph /  8km/h 95% 0in /  0.0mm 0 W/m2
02:46 35.2 °F /  1.8 °C 34 °F /  1.1 °C 29.5in /  998.6hPa ENE 2mph /  3.2km/h 8mph /  12.9km/h 95% 0in /  0.0mm 0 W/m2
02:51 35.4 °F /  1.9 °C 34.2 °F /  1.2 °C 29.5in /  998.6hPa Calm   2mph /  3.2km/h 95% 0in /  0.0mm 0 W/m2
02:56 35.4 °F /  1.9 °C 34.2 °F /  1.2 °C 29.5in /  998.6hPa East 4mph /  6.4km/h 8mph /  12.9km/h 95% 0in /  0.0mm 0 W/m2
03:01 35.4 °F /  1.9 °C 34.2 °F /  1.2 °C 29.5in /  998.6hPa ENE 6.9mph /  11.1km/h 9mph /  14.5km/h 95% 0in /  0.0mm 0 W/m2
03:06 35.4 °F /  1.9 °C 34.2 °F /  1.2 °C 29.5in /  998.6hPa Calm   4mph /  6.4km/h 95% 0in /  0.0mm 0 W/m2
03:11 35.4 °F /  1.9 °C 34.2 °F /  1.2 °C 29.5in /  998.6hPa ENE 2.9mph /  4.7km/h 9mph /  14.5km/h 95% 0in /  0.0mm 0 W/m2
03:16 35.2 °F /  1.8 °C 34 °F /  1.1 °C 29.5in /  998.6hPa ENE 2.9mph /  4.7km/h 6mph /  9.7km/h 95% 0in /  0.0mm 0 W/m2
03:21 35.2 °F /  1.8 °C 34 °F /  1.1 °C 29.5in /  998.6hPa ESE 2mph /  3.2km/h 8mph /  12.9km/h 95% 0in /  0.0mm 0 W/m2
03:26 35.2 °F /  1.8 °C 34 °F /  1.1 °C 29.5in /  998.6hPa East 2.9mph /  4.7km/h 7mph /  11.3km/h 95% 0.01in /  0.2mm 0 W/m2
03:31 35.2 °F /  1.8 °C 34 °F /  1.1 °C 29.5in /  998.6hPa East 2.9mph /  4.7km/h 5mph /  8km/h 95% 0.01in /  0.2mm 0 W/m2
03:36 35.2 °F /  1.8 °C 34 °F /  1.1 °C 29.5in /  998.6hPa ENE 4mph /  6.4km/h 4mph /  6.4km/h 95% 0.01in /  0.2mm 0 W/m2
03:41 35.2 °F /  1.8 °C 34 °F /  1.1 °C 29.5in /  998.6hPa ESE 0.9mph /  1.4km/h 3mph /  4.8km/h 95% 0.01in /  0.2mm 0 W/m2
03:46 35.2 °F /  1.8 °C 34 °F /  1.1 °C 29.5in /  998.6hPa Calm   2mph /  3.2km/h 95% 0.01in /  0.2mm 0 W/m2
03:51 35.2 °F /  1.8 °C 34 °F /  1.1 °C 29.5in /  999.0hPa ESE 2mph /  3.2km/h 7mph /  11.3km/h 95% 0.01in /  0.2mm 0 W/m2
03:56 35.2 °F /  1.8 °C 34 °F /  1.1 °C 29.5in /  999.0hPa NE 0.9mph /  1.4km/h 5mph /  8km/h 95% 0.01in /  0.2mm 0 W/m2
04:01 35.1 °F /  1.7 °C 33.8 °F /  1 °C 29.5in /  999.0hPa ESE 2mph /  3.2km/h 5mph /  8km/h 95% 0.01in /  0.2mm 0 W/m2
04:06 35.1 °F /  1.7 °C 33.8 °F /  1 °C 29.5in /  999.0hPa SE 2mph /  3.2km/h 4mph /  6.4km/h 95% 0.02in /  0.5mm 0 W/m2
04:11 35.1 °F /  1.7 °C 33.8 °F /  1 °C 29.5in /  999.0hPa East 2mph /  3.2km/h 9mph /  14.5km/h 95% 0.02in /  0.5mm 0 W/m2
04:16 35.1 °F /  1.7 °C 33.8 °F /  1 °C 29.5in /  999.0hPa ENE 2mph /  3.2km/h 6mph /  9.7km/h 95% 0.02in /  0.5mm 0 W/m2
04:21 35.1 °F /  1.7 °C 33.8 °F /  1 °C 29.5in /  999.0hPa ESE 2.9mph /  4.7km/h 7mph /  11.3km/h 95% 0.02in /  0.5mm 0 W/m2
04:26 35.1 °F /  1.7 °C 33.8 °F /  1 °C 29.5in /  999.0hPa East 2mph /  3.2km/h 4mph /  6.4km/h 95% 0.01in /  0.2mm 0 W/m2
04:31 35.1 °F /  1.7 °C 33.8 °F /  1 °C 29.5in /  999.0hPa East 0.9mph /  1.4km/h 4mph /  6.4km/h 95% 0.01in /  0.2mm 0 W/m2
04:36 35.1 °F /  1.7 °C 33.8 °F /  1 °C 29.5in /  999.0hPa East 2.9mph /  4.7km/h 7mph /  11.3km/h 95% 0.02in /  0.5mm 0 W/m2
04:42 35.1 °F /  1.7 °C 33.8 °F /  1 °C 29.5in /  999.0hPa NE 2mph /  3.2km/h 3mph /  4.8km/h 95% 0.02in /  0.5mm 0 W/m2
04:47 35.1 °F /  1.7 °C 33.8 °F /  1 °C 29.5in /  999.0hPa ENE 0.9mph /  1.4km/h 5mph /  8km/h 95% 0.02in /  0.5mm 0 W/m2
04:52 35.1 °F /  1.7 °C 33.8 °F /  1 °C 29.5in /  999.0hPa ESE 0.9mph /  1.4km/h 6mph /  9.7km/h 95% 0.02in /  0.5mm 0 W/m2
04:57 35.1 °F /  1.7 °C 33.8 °F /  1 °C 29.5in /  999.0hPa East 2.9mph /  4.7km/h 3mph /  4.8km/h 95% 0.02in /  0.5mm 0 W/m2
05:02 34.9 °F /  1.6 °C 33.6 °F /  0.9 °C 29.5in /  999.0hPa Calm   2mph /  3.2km/h 95% 0.02in /  0.5mm 0 W/m2
05:07 34.9 °F /  1.6 °C 33.6 °F /  0.9 °C 29.5in /  999.0hPa ESE 0.9mph /  1.4km/h 2mph /  3.2km/h 95% 0.02in /  0.5mm 0 W/m2
05:12 35.1 °F /  1.7 °C 33.8 °F /  1 °C 29.5in /  999.0hPa East 0.9mph /  1.4km/h 3mph /  4.8km/h 95% 0.02in /  0.5mm 0 W/m2
05:17 34.9 °F /  1.6 °C 33.6 °F /  0.9 °C 29.5in /  999.0hPa NE 2.9mph /  4.7km/h 3mph /  4.8km/h 95% 0.02in /  0.5mm 0 W/m2
05:22 34.9 °F /  1.6 °C 33.6 °F /  0.9 °C 29.5in /  999.0hPa East 2mph /  3.2km/h 4mph /  6.4km/h 95% 0.02in /  0.5mm 0 W/m2
05:27 34.9 °F /  1.6 °C 33.6 °F /  0.9 °C 29.5in /  999.0hPa Calm   2mph /  3.2km/h 95% 0.02in /  0.5mm 0 W/m2
05:32 34.9 °F /  1.6 °C 33.6 °F /  0.9 °C 29.5in /  999.0hPa ESE 0.9mph /  1.4km/h 4mph /  6.4km/h 95% 0.02in /  0.5mm 0 W/m2
05:37 34.9 °F /  1.6 °C 33.6 °F /  0.9 °C 29.5in /  999.0hPa East 0.9mph /  1.4km/h 2mph /  3.2km/h 95% 0.02in /  0.5mm 0 W/m2
05:42 34.9 °F /  1.6 °C 33.8 °F /  1 °C 29.5in /  999.3hPa ENE 0.9mph /  1.4km/h 2mph /  3.2km/h 96% 0.02in /  0.5mm 0 W/m2
05:47 34.9 °F /  1.6 °C 33.8 °F /  1 °C 29.5in /  999.3hPa ENE 0.9mph /  1.4km/h 4mph /  6.4km/h 96% 0.02in /  0.5mm 0 W/m2
05:52 34.9 °F /  1.6 °C 33.8 °F /  1 °C 29.5in /  999.3hPa ESE 4mph /  6.4km/h 7mph /  11.3km/h 96% 0.02in /  0.5mm 0 W/m2
05:57 34.9 °F /  1.6 °C 33.8 °F /  1 °C 29.5in /  999.3hPa East 2mph /  3.2km/h 5mph /  8km/h 96% 0.01in /  0.2mm 0 W/m2
06:02 34.9 °F /  1.6 °C 33.8 °F /  1 °C 29.5in /  999.3hPa East 2.9mph /  4.7km/h 4mph /  6.4km/h 96% 0.01in /  0.2mm 0 W/m2
06:07 34.9 °F /  1.6 °C 33.8 °F /  1 °C 29.5in /  999.3hPa East 2mph /  3.2km/h 6mph /  9.7km/h 96% 0.01in /  0.2mm 0 W/m2
06:12 34.9 °F /  1.6 °C 33.8 °F /  1 °C 29.5in /  999.3hPa ESE 2.9mph /  4.7km/h 4mph /  6.4km/h 96% 0.01in /  0.2mm 0 W/m2
06:17 34.7 °F /  1.5 °C 33.6 °F /  0.9 °C 29.5in /  999.3hPa East 2mph /  3.2km/h 3mph /  4.8km/h 96% 0.01in /  0.2mm 0 W/m2
06:22 34.9 °F /  1.6 °C 33.8 °F /  1 °C 29.5in /  999.3hPa East 0.9mph /  1.4km/h 3mph /  4.8km/h 96% 0.02in /  0.5mm 0 W/m2
06:27 34.7 °F /  1.5 °C 33.6 °F /  0.9 °C 29.5in /  999.3hPa East 0.9mph /  1.4km/h 4mph /  6.4km/h 96% 0.02in /  0.5mm 0 W/m2
06:32 34.7 °F /  1.5 °C 33.6 °F /  0.9 °C 29.5in /  999.7hPa ESE 2mph /  3.2km/h 5mph /  8km/h 96% 0.01in /  0.2mm 0 W/m2
06:37 34.7 °F /  1.5 °C 33.6 °F /  0.9 °C 29.5in /  999.7hPa East 2mph /  3.2km/h 3mph /  4.8km/h 96% 0.01in /  0.2mm 0 W/m2
06:42 34.7 °F /  1.5 °C 33.6 °F /  0.9 °C 29.5in /  999.7hPa East 2mph /  3.2km/h 5mph /  8km/h 96% 0.01in /  0.2mm 0 W/m2
06:47 34.7 °F /  1.5 °C 33.6 °F /  0.9 °C 29.5in /  999.7hPa ESE 4mph /  6.4km/h 4mph /  6.4km/h 96% 0.01in /  0.2mm 0 W/m2
06:52 34.7 °F /  1.5 °C 33.6 °F /  0.9 °C 29.5in /  999.7hPa ENE 2mph /  3.2km/h 7mph /  11.3km/h 96% 0.01in /  0.2mm 0 W/m2
06:57 34.5 °F /  1.4 °C 33.3 °F /  0.7 °C 29.5in /  999.7hPa Calm   4mph /  6.4km/h 95% 0.01in /  0.2mm 0 W/m2
07:02 34.5 °F /  1.4 °C 33.3 °F /  0.7 °C 29.5in /  999.7hPa ENE 0.9mph /  1.4km/h 2mph /  3.2km/h 95% 0.01in /  0.2mm 0 W/m2
07:07 34.5 °F /  1.4 °C 33.3 °F /  0.7 °C 29.5in /  999.7hPa ENE 2.9mph /  4.7km/h 6mph /  9.7km/h 95% 0.01in /  0.2mm 0 W/m2
07:12 34.5 °F /  1.4 °C 33.3 °F /  0.7 °C 29.5in /  999.7hPa East 2mph /  3.2km/h 5mph /  8km/h 95% 0.01in /  0.2mm 0 W/m2
07:17 34.3 °F /  1.3 °C 33.1 °F /  0.6 °C 29.5in /  999.7hPa East 4mph /  6.4km/h 8mph /  12.9km/h 95% 0.01in /  0.2mm 0 W/m2
07:22 34.5 °F /  1.4 °C 33.3 °F /  0.7 °C 29.5in /  999.7hPa East 2.9mph /  4.7km/h 4mph /  6.4km/h 95% 0in /  0.0mm 0 W/m2
07:27 34.5 °F /  1.4 °C 33.3 °F /  0.7 °C 29.5in /  999.7hPa NE 2.9mph /  4.7km/h 8mph /  12.9km/h 95% 0in /  0.0mm 0 W/m2
07:32 34.5 °F /  1.4 °C 33.3 °F /  0.7 °C 29.5in /  1000.0hPa ESE 2mph /  3.2km/h 4mph /  6.4km/h 95% 0in /  0.0mm 0 W/m2
07:37 34.5 °F /  1.4 °C 33.3 °F /  0.7 °C 29.5in /  1000.0hPa ESE 2mph /  3.2km/h 4mph /  6.4km/h 95% 0in /  0.0mm 0 W/m2
07:42 34.5 °F /  1.4 °C 33.3 °F /  0.7 °C 29.5in /  1000.0hPa NE 2mph /  3.2km/h 4mph /  6.4km/h 95% 0in /  0.0mm 0 W/m2
07:47 34.3 °F /  1.3 °C 33.1 °F /  0.6 °C 29.5in /  1000.0hPa East 2.9mph /  4.7km/h 6mph /  9.7km/h 95% 0in /  0.0mm 0 W/m2
07:52 34.3 °F /  1.3 °C 33.1 °F /  0.6 °C 29.5in /  1000.0hPa ENE 2mph /  3.2km/h 5mph /  8km/h 95% 0in /  0.0mm 0 W/m2
07:57 34.3 °F /  1.3 °C 33.1 °F /  0.6 °C 29.5in /  1000.3hPa ESE 6mph /  9.7km/h 7mph /  11.3km/h 95% 0in /  0.0mm 0 W/m2
08:02 34.5 °F /  1.4 °C 33.3 °F /  0.7 °C 29.5in /  1000.3hPa Calm   3mph /  4.8km/h 95% 0in /  0.0mm 0 W/m2
08:07 34.5 °F /  1.4 °C 33.3 °F /  0.7 °C 29.5in /  1000.3hPa East 2mph /  3.2km/h 3mph /  4.8km/h 95% 0in /  0.0mm 0 W/m2
08:12 34.5 °F /  1.4 °C 33.3 °F /  0.7 °C 29.5in /  1000.3hPa East 4mph /  6.4km/h 4mph /  6.4km/h 95% 0in /  0.0mm 0 W/m2
08:17 34.5 °F /  1.4 °C 33.3 °F /  0.7 °C 29.5in /  1000.3hPa East 0.9mph /  1.4km/h 1mph /  1.6km/h 95% 0in /  0.0mm 0 W/m2
08:22 34.5 °F /  1.4 °C 33.3 °F /  0.7 °C 29.5in /  1000.3hPa East 2.9mph /  4.7km/h 3mph /  4.8km/h 95% 0in /  0.0mm 0 W/m2
08:27 34.5 °F /  1.4 °C 33.3 °F /  0.7 °C 29.5in /  1000.3hPa East 2.9mph /  4.7km/h 6mph /  9.7km/h 95% 0in /  0.0mm 0 W/m2
08:32 34.5 °F /  1.4 °C 33.3 °F /  0.7 °C 29.6in /  1000.7hPa East 2mph /  3.2km/h 8mph /  12.9km/h 95% 0in /  0.0mm 0 W/m2
08:37 34.5 °F /  1.4 °C 33.3 °F /  0.7 °C 29.6in /  1000.7hPa ESE 2.9mph /  4.7km/h 4mph /  6.4km/h 95% 0in /  0.0mm 0 W/m2
08:42 34.5 °F /  1.4 °C 33.3 °F /  0.7 °C 29.6in /  1000.7hPa ENE 2mph /  3.2km/h 3mph /  4.8km/h 95% 0in /  0.0mm 5 W/m2
08:47 34.5 °F /  1.4 °C 33.3 °F /  0.7 °C 29.6in /  1000.7hPa ESE 2.9mph /  4.7km/h 6mph /  9.7km/h 95% 0in /  0.0mm 7 W/m2
08:52 34.5 °F /  1.4 °C 33.3 °F /  0.7 °C 29.6in /  1000.7hPa ESE 4mph /  6.4km/h 6mph /  9.7km/h 95% 0in /  0.0mm 9 W/m2
08:57 34.5 °F /  1.4 °C 33.3 °F /  0.7 °C 29.6in /  1000.7hPa East 2.9mph /  4.7km/h 6mph /  9.7km/h 95% 0in /  0.0mm 14 W/m2
09:02 34.5 °F /  1.4 °C 33.3 °F /  0.7 °C 29.6in /  1000.7hPa East 0.9mph /  1.4km/h 4mph /  6.4km/h 95% 0in /  0.0mm 14 W/m2
09:07 34.5 °F /  1.4 °C 33.3 °F /  0.7 °C 29.6in /  1000.7hPa ESE 2mph /  3.2km/h 6mph /  9.7km/h 95% 0in /  0.0mm 14 W/m2
09:12 34.5 °F /  1.4 °C 33.3 °F /  0.7 °C 29.6in /  1001.0hPa East 2mph /  3.2km/h 4mph /  6.4km/h 95% 0.01in /  0.2mm 14 W/m2
09:17 34.5 °F /  1.4 °C 33.3 °F /  0.7 °C 29.6in /  1001.0hPa ESE 2mph /  3.2km/h 6mph /  9.7km/h 95% 0.01in /  0.2mm 16 W/m2
09:22 34.5 °F /  1.4 °C 33.3 °F /  0.7 °C 29.6in /  1001.0hPa ENE 4.9mph /  7.9km/h 7mph /  11.3km/h 95% 0.01in /  0.2mm 18 W/m2
09:27 34.3 °F /  1.3 °C 33.1 °F /  0.6 °C 29.6in /  1001.0hPa East 4.9mph /  7.9km/h 9mph /  14.5km/h 95% 0.01in /  0.2mm 19 W/m2
09:32 34.3 °F /  1.3 °C 33.1 °F /  0.6 °C 29.6in /  1001.0hPa ESE 4.9mph /  7.9km/h 6mph /  9.7km/h 95% 0.01in /  0.2mm 21 W/m2
09:37 34.3 °F /  1.3 °C 33.1 °F /  0.6 °C 29.6in /  1001.0hPa ESE 0.9mph /  1.4km/h 4mph /  6.4km/h 95% 0.01in /  0.2mm 23 W/m2
09:42 34.3 °F /  1.3 °C 33.1 °F /  0.6 °C 29.6in /  1001.0hPa ENE 4mph /  6.4km/h 4mph /  6.4km/h 95% 0.01in /  0.2mm 25 W/m2
09:48 34.3 °F /  1.3 °C 33.1 °F /  0.6 °C 29.6in /  1001.0hPa East 2mph /  3.2km/h 3mph /  4.8km/h 95% 0.01in /  0.2mm 25 W/m2
09:53 34.3 °F /  1.3 °C 33.1 °F /  0.6 °C 29.6in /  1001.0hPa ESE 0.9mph /  1.4km/h 3mph /  4.8km/h 95% 0.01in /  0.2mm 26 W/m2
09:58 34.3 °F /  1.3 °C 33.1 °F /  0.6 °C 29.6in /  1001.0hPa East 0.9mph /  1.4km/h 4mph /  6.4km/h 95% 0.01in /  0.2mm 26 W/m2
10:03 34.3 °F /  1.3 °C 33.1 °F /  0.6 °C 29.6in /  1001.0hPa SE 2mph /  3.2km/h 3mph /  4.8km/h 95% 0.01in /  0.2mm 25 W/m2
10:08 34.3 °F /  1.3 °C 33.1 °F /  0.6 °C 29.6in /  1001.0hPa ESE 2mph /  3.2km/h 3mph /  4.8km/h 95% 0.01in /  0.2mm 30 W/m2
10:13 34.3 °F /  1.3 °C 33.1 °F /  0.6 °C 29.6in /  1001.0hPa East 2mph /  3.2km/h 5mph /  8km/h 95% 0.01in /  0.2mm 28 W/m2
10:18 34.3 °F /  1.3 °C 33.1 °F /  0.6 °C 29.6in /  1001.0hPa ENE 2.9mph /  4.7km/h 7mph /  11.3km/h 95% 0.01in /  0.2mm 21 W/m2
10:23 34.3 °F /  1.3 °C 33.1 °F /  0.6 °C 29.6in /  1001.0hPa East 2mph /  3.2km/h 4mph /  6.4km/h 95% 0.01in /  0.2mm 21 W/m2
10:28 34.3 °F /  1.3 °C 33.1 °F /  0.6 °C 29.6in /  1001.0hPa ENE 0.9mph /  1.4km/h 7mph /  11.3km/h 95% 0.01in /  0.2mm 30 W/m2
10:33 34.3 °F /  1.3 °C 33.1 °F /  0.6 °C 29.6in /  1001.0hPa Calm   3mph /  4.8km/h 95% 0.01in /  0.2mm 26 W/m2
10:38 34.3 °F /  1.3 °C 33.1 °F /  0.6 °C 29.6in /  1001.0hPa East 0.9mph /  1.4km/h 3mph /  4.8km/h 95% 0.01in /  0.2mm 25 W/m2
10:43 34.5 °F /  1.4 °C 33.4 °F /  0.8 °C 29.6in /  1001.0hPa East 2mph /  3.2km/h 5mph /  8km/h 96% 0.01in /  0.2mm 39 W/m2
10:48 34.5 °F /  1.4 °C 33.4 °F /  0.8 °C 29.6in /  1001.0hPa ESE 2mph /  3.2km/h 6mph /  9.7km/h 96% 0.01in /  0.2mm 42 W/m2
10:53 34.3 °F /  1.3 °C 33.1 °F /  0.6 °C 29.6in /  1001.0hPa East 0.9mph /  1.4km/h 5mph /  8km/h 95% 0.01in /  0.2mm 25 W/m2
10:58 34.3 °F /  1.3 °C 33.3 °F /  0.7 °C 29.6in /  1001.0hPa ESE 2mph /  3.2km/h 4mph /  6.4km/h 96% 0.01in /  0.2mm 26 W/m2
11:03 34.3 °F /  1.3 °C 33.3 °F /  0.7 °C 29.6in /  1001.4hPa East 4mph /  6.4km/h 4mph /  6.4km/h 96% 0.02in /  0.5mm 25 W/m2
11:08 34.3 °F /  1.3 °C 33.3 °F /  0.7 °C 29.6in /  1001.0hPa SSE 2mph /  3.2km/h 4mph /  6.4km/h 96% 0.02in /  0.5mm 40 W/m2
11:13 34.5 °F /  1.4 °C 33.4 °F /  0.8 °C 29.6in /  1001.0hPa ESE 0.9mph /  1.4km/h 6mph /  9.7km/h 96% 0.01in /  0.2mm 53 W/m2
11:18 34.5 °F /  1.4 °C 33.4 °F /  0.8 °C 29.6in /  1001.0hPa ENE 2mph /  3.2km/h 4mph /  6.4km/h 96% 0.01in /  0.2mm 60 W/m2
11:23 34.3 °F /  1.3 °C 33.3 °F /  0.7 °C 29.6in /  1001.0hPa East 2mph /  3.2km/h 4mph /  6.4km/h 96% 0.01in /  0.2mm 58 W/m2
11:28 34.5 °F /  1.4 °C 33.4 °F /  0.8 °C 29.6in /  1001.0hPa ESE 2mph /  3.2km/h 6mph /  9.7km/h 96% 0.01in /  0.2mm 60 W/m2
11:33 34.5 °F /  1.4 °C 33.4 °F /  0.8 °C 29.6in /  1001.0hPa ESE 0.9mph /  1.4km/h 3mph /  4.8km/h 96% 0.01in /  0.2mm 63 W/m2
11:38 34.5 °F /  1.4 °C 33.4 °F /  0.8 °C 29.6in /  1001.0hPa ESE 2mph /  3.2km/h 3mph /  4.8km/h 96% 0.01in /  0.2mm 60 W/m2
11:43 34.5 °F /  1.4 °C 33.4 °F /  0.8 °C 29.6in /  1001.0hPa ESE 0.9mph /  1.4km/h 3mph /  4.8km/h 96% 0.01in /  0.2mm 49 W/m2
11:48 34.5 °F /  1.4 °C 33.4 °F /  0.8 °C 29.6in /  1001.0hPa ESE 0.9mph /  1.4km/h 5mph /  8km/h 96% 0.01in /  0.2mm 67 W/m2
11:53 34.5 °F /  1.4 °C 33.4 °F /  0.8 °C 29.6in /  1001.0hPa East 4mph /  6.4km/h 4mph /  6.4km/h 96% 0.01in /  0.2mm 70 W/m2
11:58 34.5 °F /  1.4 °C 33.4 °F /  0.8 °C 29.6in /  1000.7hPa East 2mph /  3.2km/h 7mph /  11.3km/h 96% 0.01in /  0.2mm 65 W/m2
12:03 34.5 °F /  1.4 °C 33.4 °F /  0.8 °C 29.6in /  1001.0hPa East 2.9mph /  4.7km/h 4mph /  6.4km/h 96% 0in /  0.0mm 49 W/m2
12:08 34.5 °F /  1.4 °C 33.4 °F /  0.8 °C 29.6in /  1000.7hPa NE 2mph /  3.2km/h 6mph /  9.7km/h 96% 0in /  0.0mm 56 W/m2
12:13 34.5 °F /  1.4 °C 33.4 °F /  0.8 °C 29.6in /  1000.7hPa ENE 2mph /  3.2km/h 4mph /  6.4km/h 96% 0in /  0.0mm 58 W/m2
12:18 34.5 °F /  1.4 °C 33.4 °F /  0.8 °C 29.6in /  1000.7hPa ESE 2.9mph /  4.7km/h 6mph /  9.7km/h 96% 0in /  0.0mm 54 W/m2
12:23 34.7 °F /  1.5 °C 33.6 °F /  0.9 °C 29.6in /  1000.7hPa East 2mph /  3.2km/h 4mph /  6.4km/h 96% 0in /  0.0mm 63 W/m2
12:28 34.9 °F /  1.6 °C 33.8 °F /  1 °C 29.5in /  1000.3hPa ENE 2mph /  3.2km/h 4mph /  6.4km/h 96% 0in /  0.0mm 62 W/m2
12:33 34.9 °F /  1.6 °C 33.8 °F /  1 °C 29.5in /  1000.3hPa ENE 2mph /  3.2km/h 4mph /  6.4km/h 96% 0in /  0.0mm 54 W/m2
12:38 34.9 °F /  1.6 °C 33.8 °F /  1 °C 29.5in /  1000.3hPa East 0.9mph /  1.4km/h 4mph /  6.4km/h 96% 0in /  0.0mm 58 W/m2
12:43 34.9 °F /  1.6 °C 33.8 °F /  1 °C 29.5in /  1000.3hPa Calm   5mph /  8km/h 96% 0in /  0.0mm 76 W/m2
12:48 34.9 °F /  1.6 °C 33.8 °F /  1 °C 29.5in /  1000.3hPa ESE 0.9mph /  1.4km/h 4mph /  6.4km/h 96% 0in /  0.0mm 72 W/m2
12:53 35.1 °F /  1.7 °C 34 °F /  1.1 °C 29.5in /  1000.3hPa ESE 2.9mph /  4.7km/h 4mph /  6.4km/h 96% 0in /  0.0mm 65 W/m2
12:58 35.1 °F /  1.7 °C 34 °F /  1.1 °C 29.5in /  1000.3hPa ENE 4mph /  6.4km/h 8mph /  12.9km/h 96% 0in /  0.0mm 79 W/m2
13:03 35.1 °F /  1.7 °C 34 °F /  1.1 °C 29.5in /  1000.3hPa ESE 2mph /  3.2km/h 4mph /  6.4km/h 96% 0in /  0.0mm 69 W/m2
13:08 35.1 °F /  1.7 °C 34 °F /  1.1 °C 29.5in /  1000.3hPa East 2.9mph /  4.7km/h 8mph /  12.9km/h 96% 0in /  0.0mm 77 W/m2
13:13 35.1 °F /  1.7 °C 34 °F /  1.1 °C 29.5in /  1000.0hPa East 2.9mph /  4.7km/h 6mph /  9.7km/h 96% 0in /  0.0mm 67 W/m2
13:18 35.1 °F /  1.7 °C 34 °F /  1.1 °C 29.5in /  1000.0hPa ESE 2mph /  3.2km/h 3mph /  4.8km/h 96% 0in /  0.0mm 65 W/m2
13:23 35.2 °F /  1.8 °C 34.2 °F /  1.2 °C 29.5in /  1000.0hPa East 2mph /  3.2km/h 4mph /  6.4km/h 96% 0in /  0.0mm 81 W/m2
13:28 35.2 °F /  1.8 °C 34.2 °F /  1.2 °C 29.5in /  1000.0hPa East 0.9mph /  1.4km/h 3mph /  4.8km/h 96% 0in /  0.0mm 83 W/m2
13:33 35.2 °F /  1.8 °C 34.2 °F /  1.2 °C 29.5in /  1000.0hPa ENE 2.9mph /  4.7km/h 4mph /  6.4km/h 96% 0in /  0.0mm 65 W/m2
13:38 35.4 °F /  1.9 °C 34.3 °F /  1.3 °C 29.5in /  1000.0hPa ESE 2mph /  3.2km/h 4mph /  6.4km/h 96% 0in /  0.0mm 81 W/m2
13:43 35.4 °F /  1.9 °C 34.3 °F /  1.3 °C 29.5in /  1000.0hPa ENE 2mph /  3.2km/h 4mph /  6.4km/h 96% 0in /  0.0mm 72 W/m2
13:48 35.4 °F /  1.9 °C 34.3 °F /  1.3 °C 29.5in /  1000.0hPa East 2mph /  3.2km/h 4mph /  6.4km/h 96% 0in /  0.0mm 53 W/m2
13:53 35.4 °F /  1.9 °C 34.3 °F /  1.3 °C 29.5in /  1000.0hPa East 2mph /  3.2km/h 2mph /  3.2km/h 96% 0in /  0.0mm 40 W/m2
13:58 35.4 °F /  1.9 °C 34.3 °F /  1.3 °C 29.5in /  999.7hPa Calm   3mph /  4.8km/h 96% 0in /  0.0mm 46 W/m2
14:03 35.4 °F /  1.9 °C 34.3 °F /  1.3 °C 29.5in /  999.7hPa SE 0.9mph /  1.4km/h 3mph /  4.8km/h 96% 0in /  0.0mm 56 W/m2
14:08 35.4 °F /  1.9 °C 34.3 °F /  1.3 °C 29.5in /  999.7hPa ESE 2.9mph /  4.7km/h 4mph /  6.4km/h 96% 0in /  0.0mm 53 W/m2
14:13 35.4 °F /  1.9 °C 34.3 °F /  1.3 °C 29.5in /  999.7hPa ESE 0.9mph /  1.4km/h 3mph /  4.8km/h 96% 0in /  0.0mm 37 W/m2
14:18 35.4 °F /  1.9 °C 34.3 °F /  1.3 °C 29.5in /  999.7hPa ESE 2mph /  3.2km/h 3mph /  4.8km/h 96% 0in /  0.0mm 42 W/m2
14:23 35.4 °F /  1.9 °C 34.3 °F /  1.3 °C 29.5in /  999.7hPa ESE 2.9mph /  4.7km/h 3mph /  4.8km/h 96% 0in /  0.0mm 46 W/m2
14:28 35.4 °F /  1.9 °C 34.3 °F /  1.3 °C 29.5in /  999.3hPa East 4mph /  6.4km/h 5mph /  8km/h 96% 0in /  0.0mm 56 W/m2
14:33 35.4 °F /  1.9 °C 34.3 °F /  1.3 °C 29.5in /  999.3hPa ESE 2.9mph /  4.7km/h 4mph /  6.4km/h 96% 0in /  0.0mm 42 W/m2
14:38 35.4 °F /  1.9 °C 34.3 °F /  1.3 °C 29.5in /  999.3hPa ESE 2mph /  3.2km/h 3mph /  4.8km/h 96% 0.01in /  0.2mm 47 W/m2
14:43 35.4 °F /  1.9 °C 34.3 °F /  1.3 °C 29.5in /  999.0hPa East 2mph /  3.2km/h 4mph /  6.4km/h 96% 0.01in /  0.2mm 53 W/m2
14:48 35.4 °F /  1.9 °C 34.3 °F /  1.3 °C 29.5in /  999.0hPa East 0.9mph /  1.4km/h 3mph /  4.8km/h 96% 0.01in /  0.2mm 54 W/m2
14:53 35.6 °F /  2 °C 34.5 °F /  1.4 °C 29.5in /  999.0hPa East 6mph /  9.7km/h 6mph /  9.7km/h 96% 0.01in /  0.2mm 54 W/m2
14:58 35.6 °F /  2 °C 34.5 °F /  1.4 °C 29.5in /  999.0hPa ESE 4mph /  6.4km/h 8mph /  12.9km/h 96% 0.01in /  0.2mm 46 W/m2
15:03 35.4 °F /  1.9 °C 34.3 °F /  1.3 °C 29.5in /  998.6hPa ESE 2mph /  3.2km/h 6mph /  9.7km/h 96% 0.01in /  0.2mm 40 W/m2
15:08 35.4 °F /  1.9 °C 34.3 °F /  1.3 °C 29.5in /  998.6hPa East 0.9mph /  1.4km/h 8mph /  12.9km/h 96% 0.01in /  0.2mm 40 W/m2
15:13 35.4 °F /  1.9 °C 34.3 °F /  1.3 °C 29.5in /  998.6hPa East 2mph /  3.2km/h 4mph /  6.4km/h 96% 0.01in /  0.2mm 23 W/m2
15:18 35.6 °F /  2 °C 34.5 °F /  1.4 °C 29.5in /  998.6hPa East 2.9mph /  4.7km/h 4mph /  6.4km/h 96% 0.01in /  0.2mm 18 W/m2
15:23 35.6 °F /  2 °C 34.5 °F /  1.4 °C 29.5in /  998.6hPa East 0.9mph /  1.4km/h 3mph /  4.8km/h 96% 0.01in /  0.2mm 18 W/m2
15:28 35.6 °F /  2 °C 34.5 °F /  1.4 °C 29.5in /  998.6hPa SE 2mph /  3.2km/h 3mph /  4.8km/h 96% 0.01in /  0.2mm 21 W/m2
15:33 35.8 °F /  2.1 °C 34.7 °F /  1.5 °C 29.5in /  998.6hPa NE 2.9mph /  4.7km/h 7mph /  11.3km/h 96% 0.01in /  0.2mm 21 W/m2
15:38 35.8 °F /  2.1 °C 34.7 °F /  1.5 °C 29.5in /  998.6hPa East 2.9mph /  4.7km/h 3mph /  4.8km/h 96% 0in /  0.0mm 28 W/m2
15:43 35.8 °F /  2.1 °C 34.7 °F /  1.5 °C 29.5in /  998.6hPa ESE 2.9mph /  4.7km/h 7mph /  11.3km/h 96% 0in /  0.0mm 25 W/m2
15:48 35.8 °F /  2.1 °C 34.7 °F /  1.5 °C 29.5in /  998.6hPa East 2mph /  3.2km/h 4mph /  6.4km/h 96% 0in /  0.0mm 28 W/m2
15:53 35.8 °F /  2.1 °C 34.7 °F /  1.5 °C 29.5in /  998.6hPa East 2mph /  3.2km/h 7mph /  11.3km/h 96% 0in /  0.0mm 26 W/m2
15:58 35.8 °F /  2.1 °C 34.7 °F /  1.5 °C 29.5in /  998.3hPa ESE 2mph /  3.2km/h 6mph /  9.7km/h 96% 0in /  0.0mm 19 W/m2
16:03 35.6 °F /  2 °C 34.5 °F /  1.4 °C 29.5in /  998.3hPa East 2.9mph /  4.7km/h 3mph /  4.8km/h 96% 0in /  0.0mm 16 W/m2
16:08 35.6 °F /  2 °C 34.5 °F /  1.4 °C 29.5in /  998.3hPa East 2mph /  3.2km/h 5mph /  8km/h 96% 0in /  0.0mm 18 W/m2
16:13 35.6 °F /  2 °C 34.5 °F /  1.4 °C 29.5in /  998.3hPa East 6.9mph /  11.1km/h 9mph /  14.5km/h 96% 0in /  0.0mm 19 W/m2
16:18 35.6 °F /  2 °C 34.5 °F /  1.4 °C 29.5in /  998.0hPa East 2.9mph /  4.7km/h 4mph /  6.4km/h 96% 0in /  0.0mm 19 W/m2
16:23 35.6 °F /  2 °C 34.5 °F /  1.4 °C 29.5in /  998.3hPa ESE 2mph /  3.2km/h 7mph /  11.3km/h 96% 0in /  0.0mm 16 W/m2
16:28 35.6 °F /  2 °C 34.5 °F /  1.4 °C 29.5in /  998.0hPa ESE 2mph /  3.2km/h 5mph /  8km/h 96% 0in /  0.0mm 18 W/m2
16:33 35.6 °F /  2 °C 34.5 °F /  1.4 °C 29.5in /  998.0hPa ENE 4mph /  6.4km/h 5mph /  8km/h 96% 0in /  0.0mm 16 W/m2
16:38 35.6 °F /  2 °C 34.5 °F /  1.4 °C 29.5in /  998.0hPa East 2mph /  3.2km/h 6mph /  9.7km/h 96% 0in /  0.0mm 16 W/m2
16:43 35.6 °F /  2 °C 34.5 °F /  1.4 °C 29.5in /  998.0hPa ESE 2mph /  3.2km/h 3mph /  4.8km/h 96% 0.01in /  0.2mm 19 W/m2
16:48 35.8 °F /  2.1 °C 34.7 °F /  1.5 °C 29.5in /  998.0hPa ESE 2mph /  3.2km/h 3mph /  4.8km/h 96% 0.01in /  0.2mm 16 W/m2
16:53 35.6 °F /  2 °C 34.5 °F /  1.4 °C 29.5in /  997.6hPa ESE 2mph /  3.2km/h 3mph /  4.8km/h 96% 0.01in /  0.2mm 12 W/m2
16:58 35.6 °F /  2 °C 34.5 °F /  1.4 °C 29.5in /  997.6hPa East 0.9mph /  1.4km/h 3mph /  4.8km/h 96% 0.01in /  0.2mm 11 W/m2
17:03 35.8 °F /  2.1 °C 34.7 °F /  1.5 °C 29.5in /  997.6hPa SE 2mph /  3.2km/h 4mph /  6.4km/h 96% 0.01in /  0.2mm 7 W/m2
17:08 35.6 °F /  2 °C 34.5 °F /  1.4 °C 29.5in /  997.6hPa East 2mph /  3.2km/h 4mph /  6.4km/h 96% 0.01in /  0.2mm 5 W/m2
17:13 35.8 °F /  2.1 °C 35.1 °F /  1.7 °C 29.5in /  997.6hPa ESE 0.9mph /  1.4km/h 4mph /  6.4km/h 97% 0.01in /  0.2mm 5 W/m2
17:18 35.8 °F /  2.1 °C 35.1 °F /  1.7 °C 29.5in /  997.6hPa ESE 2mph /  3.2km/h 3mph /  4.8km/h 97% 0.01in /  0.2mm 0 W/m2
17:23 35.6 °F /  2 °C 34.9 °F /  1.6 °C 29.5in /  997.3hPa East 0.9mph /  1.4km/h 4mph /  6.4km/h 97% 0.01in /  0.2mm 0 W/m2
17:28 35.8 °F /  2.1 °C 35.1 °F /  1.7 °C 29.5in /  997.6hPa ENE 2mph /  3.2km/h 3mph /  4.8km/h 97% 0.01in /  0.2mm 0 W/m2
17:33 35.8 °F /  2.1 °C 35.1 °F /  1.7 °C 29.5in /  997.3hPa East 2.9mph /  4.7km/h 3mph /  4.8km/h 97% 0.02in /  0.5mm 0 W/m2
17:38 35.6 °F /  2 °C 34.9 °F /  1.6 °C 29.5in /  997.3hPa East 0.9mph /  1.4km/h 3mph /  4.8km/h 97% 0.02in /  0.5mm 0 W/m2
17:43 35.6 °F /  2 °C 34.9 °F /  1.6 °C 29.5in /  997.3hPa East 2mph /  3.2km/h 3mph /  4.8km/h 97% 0.01in /  0.2mm 0 W/m2
17:48 35.6 °F /  2 °C 34.9 °F /  1.6 °C 29.5in /  997.3hPa ENE 2mph /  3.2km/h 3mph /  4.8km/h 97% 0.01in /  0.2mm 0 W/m2
17:53 35.6 °F /  2 °C 34.9 °F /  1.6 °C 29.5in /  997.3hPa East 2mph /  3.2km/h 4mph /  6.4km/h 97% 0.01in /  0.2mm 0 W/m2
17:58 35.6 °F /  2 °C 34.9 °F /  1.6 °C 29.5in /  997.3hPa ESE 7mph /  11.3km/h 7mph /  11.3km/h 97% 0.01in /  0.2mm 0 W/m2
18:03 35.4 °F /  1.9 °C 34.7 °F /  1.5 °C 29.4in /  997.0hPa SE 2mph /  3.2km/h 5mph /  8km/h 97% 0.02in /  0.5mm 0 W/m2
18:08 35.4 °F /  1.9 °C 34.7 °F /  1.5 °C 29.4in /  997.0hPa East 7mph /  11.3km/h 7mph /  11.3km/h 97% 0.02in /  0.5mm 0 W/m2
18:13 35.4 °F /  1.9 °C 34.7 °F /  1.5 °C 29.4in /  997.0hPa ESE 2mph /  3.2km/h 3mph /  4.8km/h 97% 0.02in /  0.5mm 0 W/m2
18:18 35.4 °F /  1.9 °C 34.7 °F /  1.5 °C 29.4in /  997.0hPa East 2.9mph /  4.7km/h 4mph /  6.4km/h 97% 0.02in /  0.5mm 0 W/m2
18:23 35.4 °F /  1.9 °C 34.7 °F /  1.5 °C 29.4in /  997.0hPa ESE 2mph /  3.2km/h 5mph /  8km/h 97% 0.02in /  0.5mm 0 W/m2
18:28 35.4 °F /  1.9 °C 34.7 °F /  1.5 °C 29.4in /  996.6hPa ENE 2.9mph /  4.7km/h 3mph /  4.8km/h 97% 0.02in /  0.5mm 0 W/m2
18:33 35.4 °F /  1.9 °C 34.7 °F /  1.5 °C 29.4in /  996.6hPa ESE 0.9mph /  1.4km/h 2mph /  3.2km/h 97% 0.01in /  0.2mm 0 W/m2
18:38 35.4 °F /  1.9 °C 34.7 °F /  1.5 °C 29.4in /  996.3hPa Calm   2mph /  3.2km/h 97% 0.01in /  0.2mm 0 W/m2
18:43 35.4 °F /  1.9 °C 34.7 °F /  1.5 °C 29.4in /  996.3hPa ESE 2mph /  3.2km/h 3mph /  4.8km/h 97% 0.01in /  0.2mm 0 W/m2
18:48 35.4 °F /  1.9 °C 34.7 °F /  1.5 °C 29.4in /  996.3hPa East 2.9mph /  4.7km/h 3mph /  4.8km/h 97% 0.01in /  0.2mm 0 W/m2
18:53 35.4 °F /  1.9 °C 34.7 °F /  1.5 °C 29.4in /  995.9hPa ESE 2.9mph /  4.7km/h 3mph /  4.8km/h 97% 0.02in /  0.5mm 0 W/m2
18:58 35.4 °F /  1.9 °C 34.7 °F /  1.5 °C 29.4in /  995.9hPa East 0.9mph /  1.4km/h 4mph /  6.4km/h 97% 0.02in /  0.5mm 0 W/m2
19:03 35.4 °F /  1.9 °C 34.7 °F /  1.5 °C 29.4in /  995.9hPa ENE 0.9mph /  1.4km/h 2mph /  3.2km/h 97% 0.01in /  0.2mm 0 W/m2
19:08 35.4 °F /  1.9 °C 34.7 °F /  1.5 °C 29.4in /  995.9hPa ENE 0.9mph /  1.4km/h 4mph /  6.4km/h 97% 0.01in /  0.2mm 0 W/m2
19:13 35.4 °F /  1.9 °C 34.7 °F /  1.5 °C 29.4in /  995.9hPa ESE 4mph /  6.4km/h 5mph /  8km/h 97% 0.01in /  0.2mm 0 W/m2
19:18 35.4 °F /  1.9 °C 34.7 °F /  1.5 °C 29.4in /  995.9hPa ENE 0.9mph /  1.4km/h 4mph /  6.4km/h 97% 0.02in /  0.5mm 0 W/m2
19:23 35.4 °F /  1.9 °C 34.7 °F /  1.5 °C 29.4in /  995.6hPa East 2mph /  3.2km/h 5mph /  8km/h 97% 0.02in /  0.5mm 0 W/m2
19:28 35.4 °F /  1.9 °C 34.7 °F /  1.5 °C 29.4in /  995.6hPa ESE 0.9mph /  1.4km/h 5mph /  8km/h 97% 0.02in /  0.5mm 0 W/m2
19:34 35.4 °F /  1.9 °C 34.7 °F /  1.5 °C 29.4in /  995.3hPa ESE 0.9mph /  1.4km/h 3mph /  4.8km/h 97% 0.02in /  0.5mm 0 W/m2
19:39 35.4 °F /  1.9 °C 34.7 °F /  1.5 °C 29.4in /  995.3hPa East 2.9mph /  4.7km/h 5mph /  8km/h 97% 0.02in /  0.5mm 0 W/m2
19:44 35.4 °F /  1.9 °C 34.7 °F /  1.5 °C 29.4in /  995.3hPa East 0.9mph /  1.4km/h 3mph /  4.8km/h 97% 0.02in /  0.5mm 0 W/m2
19:49 35.4 °F /  1.9 °C 34.7 °F /  1.5 °C 29.4in /  995.3hPa ESE 0.9mph /  1.4km/h 2mph /  3.2km/h 97% 0.02in /  0.5mm 0 W/m2
19:54 35.4 °F /  1.9 °C 34.7 °F /  1.5 °C 29.4in /  995.3hPa East 2.9mph /  4.7km/h 4mph /  6.4km/h 97% 0.02in /  0.5mm 0 W/m2
19:59 35.4 °F /  1.9 °C 34.7 °F /  1.5 °C 29.4in /  994.9hPa ENE 2mph /  3.2km/h 6mph /  9.7km/h 97% 0.02in /  0.5mm 0 W/m2
20:04 35.4 °F /  1.9 °C 34.7 °F /  1.5 °C 29.4in /  994.9hPa East 2.9mph /  4.7km/h 3mph /  4.8km/h 97% 0.02in /  0.5mm 0 W/m2
20:09 35.4 °F /  1.9 °C 34.7 °F /  1.5 °C 29.4in /  994.9hPa ESE 2mph /  3.2km/h 6mph /  9.7km/h 97% 0.02in /  0.5mm 0 W/m2
20:14 35.4 °F /  1.9 °C 34.7 °F /  1.5 °C 29.4in /  994.9hPa ENE 2.9mph /  4.7km/h 3mph /  4.8km/h 97% 0.02in /  0.5mm 0 W/m2
20:19 35.4 °F /  1.9 °C 34.7 °F /  1.5 °C 29.4in /  994.9hPa ENE 0.9mph /  1.4km/h 4mph /  6.4km/h 97% 0.01in /  0.2mm 0 W/m2
20:24 35.4 °F /  1.9 °C 34.7 °F /  1.5 °C 29.4in /  994.6hPa East 0.9mph /  1.4km/h 3mph /  4.8km/h 97% 0.02in /  0.5mm 0 W/m2
20:29 35.4 °F /  1.9 °C 34.7 °F /  1.5 °C 29.4in /  994.6hPa East 2mph /  3.2km/h 4mph /  6.4km/h 97% 0.02in /  0.5mm 0 W/m2
20:34 35.6 °F /  2 °C 34.9 °F /  1.6 °C 29.4in /  994.6hPa East 2.9mph /  4.7km/h 6mph /  9.7km/h 97% 0.02in /  0.5mm 0 W/m2
20:39 35.6 °F /  2 °C 34.9 °F /  1.6 °C 29.4in /  994.2hPa East 2.9mph /  4.7km/h 3mph /  4.8km/h 97% 0.02in /  0.5mm 0 W/m2
20:44 35.6 °F /  2 °C 34.9 °F /  1.6 °C 29.4in /  994.2hPa ESE 2mph /  3.2km/h 3mph /  4.8km/h 97% 0.02in /  0.5mm 0 W/m2
20:49 35.6 °F /  2 °C 34.9 °F /  1.6 °C 29.4in /  994.2hPa ESE 2mph /  3.2km/h 4mph /  6.4km/h 97% 0.02in /  0.5mm 0 W/m2
20:54 35.6 °F /  2 °C 34.9 °F /  1.6 °C 29.4in /  994.2hPa ENE 0.9mph /  1.4km/h 2mph /  3.2km/h 97% 0.02in /  0.5mm 0 W/m2
20:59 35.8 °F /  2.1 °C 35.1 °F /  1.7 °C 29.4in /  993.9hPa East 0.9mph /  1.4km/h 2mph /  3.2km/h 97% 0.02in /  0.5mm 0 W/m2
21:04 35.6 °F /  2 °C 34.9 °F /  1.6 °C 29.4in /  993.9hPa ESE 0.9mph /  1.4km/h 2mph /  3.2km/h 97% 0.03in /  0.8mm 0 W/m2
21:09 35.8 °F /  2.1 °C 35.1 °F /  1.7 °C 29.4in /  993.9hPa ESE 0.9mph /  1.4km/h 2mph /  3.2km/h 97% 0.04in /  1.0mm 0 W/m2
21:14 35.8 °F /  2.1 °C 35.1 °F /  1.7 °C 29.4in /  993.9hPa ESE 0.9mph /  1.4km/h 2mph /  3.2km/h 97% 0.04in /  1.0mm 0 W/m2
21:19 35.8 °F /  2.1 °C 35.1 °F /  1.7 °C 29.4in /  993.9hPa ENE 0.9mph /  1.4km/h 2mph /  3.2km/h 97% 0.05in /  1.3mm 0 W/m2
21:24 35.8 °F /  2.1 °C 35.1 °F /  1.7 °C 29.3in /  993.6hPa East 2mph /  3.2km/h 3mph /  4.8km/h 97% 0.04in /  1.0mm 0 W/m2
21:29 35.8 °F /  2.1 °C 35.1 °F /  1.7 °C 29.3in /  993.6hPa ESE 0.9mph /  1.4km/h 3mph /  4.8km/h 97% 0.05in /  1.3mm 0 W/m2
21:34 35.8 °F /  2.1 °C 35.1 °F /  1.7 °C 29.3in /  993.6hPa ESE 2mph /  3.2km/h 6mph /  9.7km/h 97% 0.06in /  1.5mm 0 W/m2
21:39 35.8 °F /  2.1 °C 35.1 °F /  1.7 °C 29.3in /  993.6hPa East 2mph /  3.2km/h 3mph /  4.8km/h 97% 0.06in /  1.5mm 0 W/m2
21:44 35.8 °F /  2.1 °C 35.1 °F /  1.7 °C 29.3in /  993.6hPa East 0.9mph /  1.4km/h 6mph /  9.7km/h 97% 0.06in /  1.5mm 0 W/m2
21:49 35.8 °F /  2.1 °C 35.1 °F /  1.7 °C 29.3in /  993.2hPa ESE 2mph /  3.2km/h 4mph /  6.4km/h 97% 0.06in /  1.5mm 0 W/m2
21:54 35.8 °F /  2.1 °C 35.1 °F /  1.7 °C 29.3in /  993.2hPa East 2mph /  3.2km/h 2mph /  3.2km/h 97% 0.08in /  2.0mm 0 W/m2
21:59 35.8 °F /  2.1 °C 35.1 °F /  1.7 °C 29.3in /  993.2hPa East 0.9mph /  1.4km/h 4mph /  6.4km/h 97% 0.08in /  2.0mm 0 W/m2
22:04 36 °F /  2.2 °C 35.2 °F /  1.8 °C 29.3in /  992.9hPa East 0.9mph /  1.4km/h 4mph /  6.4km/h 97% 0.08in /  2.0mm 0 W/m2
22:09 36 °F /  2.2 °C 35.2 °F /  1.8 °C 29.3in /  992.9hPa East 0.9mph /  1.4km/h 3mph /  4.8km/h 97% 0.08in /  2.0mm 0 W/m2
22:14 36 °F /  2.2 °C 35.2 °F /  1.8 °C 29.3in /  992.9hPa East 2mph /  3.2km/h 2mph /  3.2km/h 97% 0.08in /  2.0mm 0 W/m2
22:19 36 °F /  2.2 °C 35.2 °F /  1.8 °C 29.3in /  992.9hPa Calm   2mph /  3.2km/h 97% 0.08in /  2.0mm 0 W/m2
22:24 36 °F /  2.2 °C 35.2 °F /  1.8 °C 29.3in /  992.9hPa East 0.9mph /  1.4km/h 3mph /  4.8km/h 97% 0.08in /  2.0mm 0 W/m2
22:29 36 °F /  2.2 °C 35.2 °F /  1.8 °C 29.3in /  992.9hPa ENE 0.9mph /  1.4km/h 2mph /  3.2km/h 97% 0.08in /  2.0mm 0 W/m2
22:34 36 °F /  2.2 °C 35.2 °F /  1.8 °C 29.3in /  992.5hPa ENE 0.9mph /  1.4km/h 3mph /  4.8km/h 97% 0.08in /  2.0mm 0 W/m2
22:39 36 °F /  2.2 °C 35.2 °F /  1.8 °C 29.3in /  992.5hPa ENE 0.9mph /  1.4km/h 2mph /  3.2km/h 97% 0.09in /  2.3mm 0 W/m2
22:44 36 °F /  2.2 °C 35.2 °F /  1.8 °C 29.3in /  992.5hPa ENE 0.9mph /  1.4km/h 3mph /  4.8km/h 97% 0.09in /  2.3mm 0 W/m2
22:49 36 °F /  2.2 °C 35.2 °F /  1.8 °C 29.3in /  992.5hPa ENE 0.9mph /  1.4km/h 2mph /  3.2km/h 97% 0.08in /  2.0mm 0 W/m2
22:54 36 °F /  2.2 °C 35.2 °F /  1.8 °C 29.3in /  992.5hPa Calm   3mph /  4.8km/h 97% 0.06in /  1.5mm 0 W/m2
22:59 36 °F /  2.2 °C 35.2 °F /  1.8 °C 29.3in /  992.2hPa Calm   1mph /  1.6km/h 97% 0.06in /  1.5mm 0 W/m2
23:04 36 °F /  2.2 °C 35.2 °F /  1.8 °C 29.3in /  992.2hPa ENE 0.9mph /  1.4km/h 1mph /  1.6km/h 97% 0.06in /  1.5mm 0 W/m2
23:09 36 °F /  2.2 °C 35.2 °F /  1.8 °C 29.3in /  992.2hPa ENE 0.9mph /  1.4km/h 2mph /  3.2km/h 97% 0.06in /  1.5mm 0 W/m2
23:14 36.1 °F /  2.3 °C 35.4 °F /  1.9 °C 29.3in /  992.2hPa ESE 2mph /  3.2km/h 3mph /  4.8km/h 97% 0.06in /  1.5mm 0 W/m2
23:19 36.1 °F /  2.3 °C 35.4 °F /  1.9 °C 29.3in /  991.9hPa ENE 2mph /  3.2km/h 3mph /  4.8km/h 97% 0.05in /  1.3mm 0 W/m2
23:24 36 °F /  2.2 °C 35.2 °F /  1.8 °C 29.3in /  991.9hPa Calm     97% 0.06in /  1.5mm 0 W/m2
23:29 36.1 °F /  2.3 °C 35.4 °F /  1.9 °C 29.3in /  991.9hPa NE 2.9mph /  4.7km/h 3mph /  4.8km/h 97% 0.05in /  1.3mm 0 W/m2
23:34 36 °F /  2.2 °C 35.2 °F /  1.8 °C 29.3in /  991.9hPa East 2mph /  3.2km/h 3mph /  4.8km/h 97% 0.05in /  1.3mm 0 W/m2
23:39 36 °F /  2.2 °C 35.2 °F /  1.8 °C 29.3in /  991.9hPa ESE 2mph /  3.2km/h 3mph /  4.8km/h 97% 0.04in /  1.0mm 0 W/m2
23:44 36 °F /  2.2 °C 35.2 °F /  1.8 °C 29.3in /  991.5hPa ENE 2mph /  3.2km/h 3mph /  4.8km/h 97% 0.04in /  1.0mm 0 W/m2
23:49 36 °F /  2.2 °C 35.2 °F /  1.8 °C 29.3in /  991.5hPa Calm   2mph /  3.2km/h 97% 0.04in /  1.0mm 0 W/m2
23:54 36 °F /  2.2 °C 35.2 °F /  1.8 °C 29.3in /  991.5hPa East 2mph /  3.2km/h 2mph /  3.2km/h 97% 0.04in /  1.0mm 0 W/m2
23:59 36 °F /  2.2 °C 35.2 °F /  1.8 °C 29.3in /  991.5hPa ESE 0.9mph /  1.4km/h 2mph /  3.2km/h 97% 0.04in /  1.0mm 0 W/m2
Juneau County Weather
Compliments of Weather Underground - 4 mb